createdAt,value
2022-12-18T00:00:20.439Z,-0.10
2022-12-18T00:01:25.920Z,-0.05
2022-12-18T00:02:28.850Z,0.00
2022-12-18T00:03:31.260Z,-0.03
2022-12-18T00:04:33.892Z,-0.12
2022-12-18T00:05:37.350Z,-0.12
2022-12-18T00:06:40.059Z,-0.05
2022-12-18T00:07:43.605Z,-0.04
2022-12-18T00:08:46.641Z,0.01
2022-12-18T00:09:49.186Z,0.01
2022-12-18T00:10:53.888Z,0.01
2022-12-18T00:13:18.271Z,0.04
2022-12-18T00:14:20.934Z,0.03
2022-12-18T00:15:23.378Z,0.01
2022-12-18T00:16:27.030Z,0.00
2022-12-18T00:17:29.386Z,-0.09
2022-12-18T00:18:32.344Z,-0.01
2022-12-18T00:19:35.103Z,-0.02
2022-12-18T00:20:39.453Z,0.00
2022-12-18T00:21:42.841Z,0.03
2022-12-18T00:22:45.332Z,0.00
2022-12-18T00:23:49.309Z,0.00
2022-12-18T00:24:52.755Z,0.00
2022-12-18T00:25:55.424Z,-0.02
2022-12-18T00:26:58.069Z,0.00
2022-12-18T00:28:00.433Z,-0.04
2022-12-18T00:29:06.951Z,-0.03
2022-12-18T00:30:10.389Z,0.02
2022-12-18T00:31:17.022Z,0.00
2022-12-18T00:32:19.644Z,-0.03
2022-12-18T00:33:22.148Z,0.01
2022-12-18T00:34:24.644Z,0.02
2022-12-18T00:35:28.335Z,0.01
2022-12-18T00:36:34.487Z,-0.08
2022-12-18T00:37:37.037Z,-0.05
2022-12-18T00:38:41.149Z,0.03
2022-12-18T00:39:43.503Z,-0.02
2022-12-18T00:40:45.858Z,0.02
2022-12-18T00:42:06.816Z,-0.02
2022-12-18T00:43:09.216Z,0.03
2022-12-18T00:44:14.176Z,0.03
2022-12-18T00:45:16.618Z,0.03
2022-12-18T00:46:19.003Z,0.07
2022-12-18T00:47:22.241Z,-0.02
2022-12-18T00:48:25.144Z,-0.06
2022-12-18T00:49:27.656Z,0.04
2022-12-18T00:50:30.957Z,0.07
2022-12-18T00:51:34.779Z,0.01
2022-12-18T00:52:37.509Z,0.05
2022-12-18T00:53:42.507Z,0.02
2022-12-18T00:54:45.095Z,0.08
2022-12-18T00:55:47.885Z,0.00
2022-12-18T00:56:50.495Z,-0.03
2022-12-18T00:57:53.674Z,0.01
2022-12-18T00:58:56.183Z,0.08
2022-12-18T00:59:58.892Z,0.01
2022-12-18T01:01:01.380Z,0.05
2022-12-18T01:02:03.992Z,0.09
2022-12-18T01:03:07.601Z,0.01
2022-12-18T01:04:10.251Z,-0.03
2022-12-18T01:05:14.718Z,0.02
2022-12-18T01:06:17.854Z,-0.03
2022-12-18T01:07:20.241Z,0.01
2022-12-18T01:08:22.865Z,0.01
2022-12-18T01:09:25.605Z,0.02
2022-12-18T01:10:28.199Z,-0.02
2022-12-18T01:11:33.693Z,0.00
2022-12-18T01:12:36.269Z,-0.16
2022-12-18T01:13:39.533Z,-0.18
2022-12-18T01:14:42.154Z,-0.20
2022-12-18T01:15:51.602Z,-0.12
2022-12-18T01:16:54.314Z,-0.19
2022-12-18T01:18:02.693Z,-0.24
2022-12-18T01:19:05.381Z,-0.19
2022-12-18T01:20:09.686Z,-0.16
2022-12-18T01:21:13.854Z,-0.23
2022-12-18T01:22:16.562Z,-0.20
2022-12-18T01:23:20.833Z,-0.17
2022-12-18T01:24:23.235Z,-0.20
2022-12-18T01:25:26.267Z,-0.27
2022-12-18T01:26:30.692Z,-0.26
2022-12-18T01:27:35.389Z,-0.28
2022-12-18T01:28:40.665Z,-0.22
2022-12-18T01:29:46.464Z,-0.25
2022-12-18T01:30:49.062Z,-0.29
2022-12-18T01:31:51.461Z,-0.29
2022-12-18T01:32:54.128Z,-0.28
2022-12-18T01:33:57.018Z,-0.29
2022-12-18T01:34:59.639Z,-0.29
2022-12-18T01:36:03.610Z,-0.29
2022-12-18T01:37:06.419Z,-0.33
2022-12-18T01:38:09.432Z,-0.40
2022-12-18T01:39:13.886Z,-0.46
2022-12-18T01:40:17.781Z,-0.46
2022-12-18T01:41:49.165Z,-0.47
2022-12-18T01:42:54.850Z,-0.41
2022-12-18T01:43:59.353Z,-0.41
2022-12-18T01:45:07.989Z,-0.41
2022-12-18T01:46:10.526Z,-0.37
2022-12-18T01:47:19.633Z,-0.37
2022-12-18T01:48:22.021Z,-0.37
2022-12-18T01:49:24.350Z,-0.36
2022-12-18T01:50:33.343Z,-0.35
2022-12-18T01:51:35.690Z,-0.34
2022-12-18T01:52:38.949Z,-0.40
2022-12-18T01:53:43.134Z,-0.40
2022-12-18T01:54:46.182Z,-0.41
2022-12-18T01:55:52.703Z,-0.42
2022-12-18T01:56:55.213Z,-0.37
2022-12-18T01:57:59.840Z,-0.37
2022-12-18T01:59:09.362Z,-0.38
2022-12-18T02:00:21.104Z,-0.44
2022-12-18T02:01:41.766Z,-0.39
2022-12-18T02:02:48.985Z,-0.42
2022-12-18T02:03:53.126Z,-0.39
2022-12-18T02:04:55.662Z,-0.43
2022-12-18T02:06:07.114Z,-0.48
2022-12-18T02:07:23.265Z,-0.46
2022-12-18T02:08:42.923Z,-0.54
2022-12-18T02:09:51.537Z,-0.50
2022-12-18T02:11:08.494Z,-0.54
2022-12-18T02:12:24.210Z,-0.58
2022-12-18T02:13:36.130Z,-0.60
2022-12-18T02:15:03.436Z,-0.61
2022-12-18T02:16:27.713Z,-0.60
2022-12-18T02:17:38.924Z,-0.60
2022-12-18T02:18:46.782Z,-0.65
2022-12-18T02:19:58.106Z,-0.66
2022-12-18T02:21:00.569Z,-0.64
2022-12-18T02:22:24.256Z,-0.69
2022-12-18T02:23:46.148Z,-0.71
2022-12-18T02:25:28.316Z,-0.73
2022-12-18T02:27:00.183Z,-0.75
2022-12-18T02:28:09.938Z,-0.81
2022-12-18T02:29:23.936Z,-0.99
2022-12-18T02:30:30.453Z,-1.08
2022-12-18T02:31:42.103Z,-1.17
2022-12-18T02:32:52.181Z,-1.21
2022-12-18T02:33:59.957Z,-1.20
2022-12-18T02:35:05.493Z,-1.14
2022-12-18T02:36:10.788Z,-1.05
2022-12-18T02:37:17.169Z,-1.04
2022-12-18T02:38:20.103Z,-1.01
2022-12-18T02:39:27.915Z,-1.02
2022-12-18T02:40:39.485Z,-1.06
2022-12-18T02:41:42.957Z,-1.20
2022-12-18T02:42:45.809Z,-1.14
2022-12-18T02:43:58.432Z,-1.17
2022-12-18T02:45:01.770Z,-1.14
2022-12-18T02:46:26.767Z,-1.26
2022-12-18T02:47:33.900Z,-1.22
2022-12-18T02:48:36.582Z,-1.15
2022-12-18T02:49:58.744Z,-1.17
2022-12-18T02:51:13.022Z,-1.07
2022-12-18T02:52:26.263Z,-1.24
2022-12-18T02:53:49.480Z,-1.18
2022-12-18T02:55:13.795Z,-1.19
2022-12-18T02:56:23.068Z,-1.24
2022-12-18T02:57:42.030Z,-1.08
2022-12-18T02:58:59.585Z,-1.08
2022-12-18T03:00:12.817Z,-1.06
2022-12-18T03:01:40.551Z,-1.07
2022-12-18T03:02:57.512Z,-1.06
2022-12-18T03:04:05.442Z,-0.99
2022-12-18T03:05:16.147Z,-1.01
2022-12-18T03:06:27.892Z,-1.03
2022-12-18T03:07:48.171Z,-1.02
2022-12-18T03:08:56.036Z,-1.07
2022-12-18T03:10:00.093Z,-1.10
2022-12-18T03:11:09.995Z,-1.13
2022-12-18T03:12:26.268Z,-1.11
2022-12-18T03:13:45.852Z,-1.16
2022-12-18T03:14:58.809Z,-1.17
2022-12-18T03:16:04.316Z,-1.18
2022-12-18T03:17:10.887Z,-1.25
2022-12-18T03:18:21.173Z,-1.29
2022-12-18T03:19:27.117Z,-1.25
2022-12-18T03:20:36.830Z,-1.29
2022-12-18T03:21:49.587Z,-1.42
2022-12-18T03:22:57.260Z,-1.57
2022-12-18T03:24:01.982Z,-1.46
2022-12-18T03:25:09.804Z,-1.45
2022-12-18T03:26:17.930Z,-1.49
2022-12-18T03:27:23.846Z,-1.49
2022-12-18T03:28:32.793Z,-1.44
2022-12-18T03:29:53.827Z,-1.50
2022-12-18T03:31:03.327Z,-1.49
2022-12-18T03:32:21.892Z,-1.48
2022-12-18T03:33:41.667Z,-1.57
2022-12-18T03:34:48.850Z,-1.60
2022-12-18T03:35:52.841Z,-1.64
2022-12-18T03:36:55.349Z,-1.72
2022-12-18T03:37:59.497Z,-1.68
2022-12-18T03:39:02.592Z,-1.71
2022-12-18T03:40:07.176Z,-1.68
2022-12-18T03:41:25.133Z,-1.66
2022-12-18T03:43:12.274Z,-1.67
2022-12-18T03:44:36.055Z,-1.67
2022-12-18T03:45:49.556Z,-1.68
2022-12-18T03:47:04.232Z,-1.70
2022-12-18T03:48:19.858Z,-1.74
2022-12-18T03:49:29.034Z,-1.75
2022-12-18T03:50:56.455Z,-1.73
2022-12-18T03:52:07.014Z,-1.75
2022-12-18T03:53:23.077Z,-1.78
2022-12-18T03:54:28.248Z,-1.79
2022-12-18T03:55:39.230Z,-1.79
2022-12-18T03:56:45.742Z,-1.79
2022-12-18T03:57:50.456Z,-1.83
2022-12-18T03:58:55.131Z,-1.85
2022-12-18T04:00:11.658Z,-1.87
2022-12-18T04:01:53.631Z,-1.83
2022-12-18T04:02:58.331Z,-1.85
2022-12-18T04:04:11.634Z,-1.84
2022-12-18T04:05:18.795Z,-1.87
2022-12-18T04:06:22.074Z,-1.88
2022-12-18T04:07:25.534Z,-1.88
2022-12-18T04:08:28.981Z,-1.90
2022-12-18T04:09:42.833Z,-1.86
2022-12-18T04:10:45.558Z,-1.93
2022-12-18T04:11:49.050Z,-1.95
2022-12-18T04:12:56.498Z,-1.92
2022-12-18T04:13:59.923Z,-1.91
2022-12-18T04:15:02.217Z,-1.94
2022-12-18T04:16:06.422Z,-1.91
2022-12-18T04:17:09.012Z,-1.95
2022-12-18T04:18:11.247Z,-1.92
2022-12-18T04:19:18.162Z,-1.98
2022-12-18T04:20:23.560Z,-1.94
2022-12-18T04:21:25.954Z,-1.91
2022-12-18T04:22:31.629Z,-1.95
2022-12-18T04:23:35.566Z,-1.94
2022-12-18T04:24:38.060Z,-1.98
2022-12-18T04:25:51.866Z,-1.97
2022-12-18T04:27:03.690Z,-1.96
2022-12-18T04:28:09.736Z,-1.99
2022-12-18T04:29:16.382Z,-2.03
2022-12-18T04:30:18.785Z,-2.02
2022-12-18T04:31:21.620Z,-2.10
2022-12-18T04:32:24.269Z,-2.08
2022-12-18T04:33:27.239Z,-2.08
2022-12-18T04:34:30.743Z,-2.12
2022-12-18T04:35:34.126Z,-2.15
2022-12-18T04:36:37.247Z,-2.18
2022-12-18T04:37:40.676Z,-2.20
2022-12-18T04:38:43.689Z,-2.14
2022-12-18T04:39:49.667Z,-2.11
2022-12-18T04:40:59.530Z,-2.16
2022-12-18T04:42:07.053Z,-2.14
2022-12-18T04:43:11.882Z,-2.17
2022-12-18T04:44:14.663Z,-2.22
2022-12-18T04:45:17.402Z,-2.19
2022-12-18T04:46:20.228Z,-2.20
2022-12-18T04:47:23.010Z,-2.22
2022-12-18T04:48:25.766Z,-2.17
2022-12-18T04:49:28.259Z,-2.15
2022-12-18T04:50:31.186Z,-2.14
2022-12-18T04:51:34.025Z,-2.17
2022-12-18T04:52:37.352Z,-2.17
2022-12-18T04:53:40.239Z,-2.16
2022-12-18T04:54:43.163Z,-2.17
2022-12-18T04:55:45.789Z,-2.16
2022-12-18T04:56:49.021Z,-2.20
2022-12-18T04:57:51.605Z,-2.18
2022-12-18T04:58:55.707Z,-2.15
2022-12-18T04:59:59.229Z,-2.22
2022-12-18T05:01:02.428Z,-2.23
2022-12-18T05:02:05.849Z,-2.19
2022-12-18T05:03:08.254Z,-2.15
2022-12-18T05:04:11.004Z,-2.17
2022-12-18T05:05:13.539Z,-2.14
2022-12-18T05:06:16.268Z,-2.16
2022-12-18T05:07:18.667Z,-2.12
2022-12-18T05:08:21.401Z,-2.21
2022-12-18T05:09:24.219Z,-2.29
2022-12-18T05:10:26.779Z,-2.27
2022-12-18T05:11:30.728Z,-2.24
2022-12-18T05:12:34.851Z,-2.20
2022-12-18T05:13:39.443Z,-2.28
2022-12-18T05:14:42.069Z,-2.34
2022-12-18T05:15:55.024Z,-2.37
2022-12-18T05:17:01.004Z,-2.34
2022-12-18T05:18:04.851Z,-2.34
2022-12-18T05:19:08.796Z,-2.38
2022-12-18T05:20:11.636Z,-2.44
2022-12-18T05:21:13.991Z,-2.43
2022-12-18T05:22:16.768Z,-2.46
2022-12-18T05:23:21.596Z,-2.40
2022-12-18T05:24:23.976Z,-2.42
2022-12-18T05:25:26.419Z,-2.35
2022-12-18T05:26:28.976Z,-2.40
2022-12-18T05:27:31.344Z,-2.39
2022-12-18T05:28:36.006Z,-2.37
2022-12-18T05:29:38.672Z,-2.42
2022-12-18T05:30:41.388Z,-2.46
2022-12-18T05:31:46.235Z,-2.57
2022-12-18T05:32:48.970Z,-2.61
2022-12-18T05:33:51.415Z,-2.57
2022-12-18T05:34:54.132Z,-2.52
2022-12-18T05:35:59.323Z,-2.59
2022-12-18T05:37:01.729Z,-2.59
2022-12-18T05:38:04.222Z,-2.63
2022-12-18T05:39:07.798Z,-2.62
2022-12-18T05:40:11.014Z,-2.61
2022-12-18T05:41:13.491Z,-2.60
2022-12-18T05:42:15.921Z,-2.49
2022-12-18T05:43:22.692Z,-2.59
2022-12-18T05:44:25.377Z,-2.61
2022-12-18T05:45:28.122Z,-2.61
2022-12-18T05:46:30.897Z,-2.55
2022-12-18T05:47:33.736Z,-2.55
2022-12-18T05:48:36.543Z,-2.61
2022-12-18T05:49:38.962Z,-2.58
2022-12-18T05:50:43.874Z,-2.60
2022-12-18T05:51:47.299Z,-2.53
2022-12-18T05:52:50.327Z,-2.49
2022-12-18T05:53:52.729Z,-2.44
2022-12-18T05:54:55.140Z,-2.48
2022-12-18T05:56:02.225Z,-2.46
2022-12-18T05:57:04.797Z,-2.46
2022-12-18T05:58:08.933Z,-2.40
2022-12-18T05:59:11.730Z,-2.46
2022-12-18T06:00:18.319Z,-2.41
2022-12-18T06:01:25.976Z,-2.51
2022-12-18T06:02:30.400Z,-2.50
2022-12-18T06:03:34.176Z,-2.43
2022-12-18T06:04:37.602Z,-2.39
2022-12-18T06:05:45.461Z,-2.34
2022-12-18T06:06:48.067Z,-2.43
2022-12-18T06:07:53.227Z,-2.39
2022-12-18T06:08:58.353Z,-2.39
2022-12-18T06:10:01.081Z,-2.38
2022-12-18T06:11:03.604Z,-2.35
2022-12-18T06:12:07.872Z,-2.30
2022-12-18T06:13:12.249Z,-2.27
2022-12-18T06:14:18.408Z,-2.22
2022-12-18T06:15:21.061Z,-2.18
2022-12-18T06:16:27.513Z,-2.23
2022-12-18T06:17:33.794Z,-2.14
2022-12-18T06:18:39.418Z,-2.08
2022-12-18T06:19:42.928Z,-2.11
2022-12-18T06:20:45.230Z,-2.05
2022-12-18T06:21:48.328Z,-2.03
2022-12-18T06:22:50.786Z,-2.07
2022-12-18T06:23:53.160Z,-2.06
2022-12-18T06:24:55.394Z,-2.14
2022-12-18T06:25:58.294Z,-1.99
2022-12-18T06:27:00.637Z,-1.94
2022-12-18T06:28:03.916Z,-1.97
2022-12-18T06:29:08.009Z,-1.86
2022-12-18T06:30:11.052Z,-1.80
2022-12-18T06:31:13.751Z,-1.76
2022-12-18T06:32:16.216Z,-1.72
2022-12-18T06:33:18.928Z,-1.69
2022-12-18T06:34:21.365Z,-1.76
2022-12-18T06:35:25.233Z,-1.77
2022-12-18T06:36:28.487Z,-1.69
2022-12-18T06:37:32.782Z,-1.72
2022-12-18T06:38:36.616Z,-1.67
2022-12-18T06:39:39.427Z,-1.70
2022-12-18T06:40:41.923Z,-1.63
2022-12-18T06:41:44.404Z,-1.74
2022-12-18T06:42:46.993Z,-1.64
2022-12-18T06:43:50.412Z,-1.61
2022-12-18T06:45:13.091Z,-1.63
2022-12-18T06:46:15.975Z,-1.58
2022-12-18T06:47:19.428Z,-1.52
2022-12-18T06:48:22.229Z,-1.47
2022-12-18T06:49:30.297Z,-1.41
2022-12-18T06:50:33.342Z,-1.40
2022-12-18T06:51:36.292Z,-1.25
2022-12-18T06:52:41.850Z,-1.33
2022-12-18T06:53:44.416Z,-1.43
2022-12-18T06:54:47.013Z,-1.53
2022-12-18T06:55:49.737Z,-1.45
2022-12-18T06:56:53.165Z,-1.50
2022-12-18T06:57:55.758Z,-1.47
2022-12-18T06:59:00.953Z,-1.41
2022-12-18T07:00:06.850Z,-1.42
2022-12-18T07:01:12.089Z,-1.34
2022-12-18T07:02:15.516Z,-1.43
2022-12-18T07:03:18.272Z,-1.35
2022-12-18T07:04:20.900Z,-1.45
2022-12-18T07:05:28.926Z,-1.33
2022-12-18T07:06:31.532Z,-1.36
2022-12-18T07:07:36.037Z,-1.44
2022-12-18T07:08:38.637Z,-1.46
2022-12-18T07:09:41.335Z,-1.46
2022-12-18T07:10:47.631Z,-1.32
2022-12-18T07:11:54.612Z,-1.58
2022-12-18T07:13:04.716Z,-1.59
2022-12-18T07:14:30.575Z,-1.40
2022-12-18T07:15:41.118Z,-1.42
2022-12-18T07:16:43.929Z,-1.45
2022-12-18T07:17:46.538Z,-1.38
2022-12-18T07:18:49.288Z,-1.28
2022-12-18T07:19:51.986Z,-1.32
2022-12-18T07:20:54.504Z,-1.37
2022-12-18T07:21:57.369Z,-1.20
2022-12-18T07:23:00.175Z,-1.17
2022-12-18T07:24:04.618Z,-1.13
2022-12-18T07:25:10.656Z,-1.12
2022-12-18T07:26:14.704Z,-1.14
2022-12-18T07:27:18.446Z,-1.05
2022-12-18T07:28:21.085Z,-1.16
2022-12-18T07:29:24.073Z,-1.23
2022-12-18T07:30:27.251Z,-1.12
2022-12-18T07:31:29.613Z,-1.18
2022-12-18T07:32:32.355Z,-1.00
2022-12-18T07:33:35.913Z,-1.06
2022-12-18T07:34:38.325Z,-1.02
2022-12-18T07:35:40.913Z,-1.05
2022-12-18T07:36:46.524Z,-0.90
2022-12-18T07:37:49.185Z,-0.87
2022-12-18T07:38:54.178Z,-0.83
2022-12-18T07:39:56.948Z,-0.72
2022-12-18T07:41:09.066Z,-0.79
2022-12-18T07:42:29.825Z,-0.77
2022-12-18T07:43:32.472Z,-0.89
2022-12-18T07:44:34.840Z,-1.00
2022-12-18T07:45:37.555Z,-0.89
2022-12-18T07:46:40.135Z,-0.96
2022-12-18T07:47:42.916Z,-0.87
2022-12-18T07:48:49.256Z,-0.83
2022-12-18T07:49:52.751Z,-0.84
2022-12-18T07:50:55.208Z,-0.57
2022-12-18T07:51:58.843Z,-0.62
2022-12-18T07:53:04.719Z,-0.56
2022-12-18T07:54:07.080Z,-0.41
2022-12-18T07:55:09.760Z,-0.42
2022-12-18T07:56:30.876Z,-0.40
2022-12-18T07:57:49.967Z,-0.23
2022-12-18T07:58:53.500Z,-0.01
2022-12-18T08:00:00.717Z,-0.13
2022-12-18T08:01:08.281Z,-0.39
2022-12-18T08:02:10.992Z,-0.45
2022-12-18T08:03:15.207Z,-0.41
2022-12-18T08:04:17.726Z,-0.43
2022-12-18T08:05:23.792Z,0.15
2022-12-18T08:06:26.769Z,0.69
2022-12-18T08:07:29.461Z,1.35
2022-12-18T08:08:32.218Z,1.66
2022-12-18T08:09:34.727Z,1.68
2022-12-18T08:10:39.232Z,1.97
2022-12-18T08:11:41.841Z,1.74
2022-12-18T08:12:44.525Z,1.88
2022-12-18T08:13:46.952Z,1.61
2022-12-18T08:14:49.400Z,1.65
2022-12-18T08:15:59.587Z,1.84
2022-12-18T08:17:02.781Z,1.66
2022-12-18T08:18:09.026Z,1.02
2022-12-18T08:19:14.035Z,1.14
2022-12-18T08:20:16.568Z,1.06
2022-12-18T08:21:25.671Z,1.52
2022-12-18T08:22:31.012Z,1.78
2022-12-18T08:23:35.898Z,1.00
2022-12-18T08:24:40.614Z,0.73
2022-12-18T08:25:43.431Z,0.57
2022-12-18T08:27:01.027Z,0.72
2022-12-18T08:28:08.350Z,0.88
2022-12-18T08:29:11.545Z,1.14
2022-12-18T08:30:14.179Z,1.22
2022-12-18T08:31:17.106Z,1.48
2022-12-18T08:32:28.513Z,2.03
2022-12-18T08:33:31.823Z,2.21
2022-12-18T08:34:43.305Z,1.71
2022-12-18T08:35:46.259Z,1.81
2022-12-18T08:36:48.597Z,2.01
2022-12-18T08:37:55.536Z,1.55
2022-12-18T08:38:58.589Z,1.68
2022-12-18T08:40:02.070Z,1.48
2022-12-18T08:41:08.453Z,1.81
2022-12-18T08:42:29.928Z,2.09
2022-12-18T08:43:51.151Z,2.11
2022-12-18T08:44:54.688Z,1.93
2022-12-18T08:45:57.152Z,1.92
2022-12-18T08:46:59.777Z,1.79
2022-12-18T08:48:02.152Z,1.41
2022-12-18T08:49:05.376Z,1.52
2022-12-18T08:50:08.488Z,1.61
2022-12-18T08:51:13.070Z,1.65
2022-12-18T08:52:19.771Z,1.81
2022-12-18T08:53:24.006Z,1.94
2022-12-18T08:54:27.522Z,1.88
2022-12-18T08:56:47.296Z,2.46
2022-12-18T08:57:51.328Z,2.39
2022-12-18T08:58:54.968Z,2.34
2022-12-18T08:59:57.570Z,2.37
2022-12-18T09:01:05.362Z,2.07
2022-12-18T09:02:09.535Z,2.27
2022-12-18T09:03:15.570Z,2.44
2022-12-18T09:04:19.980Z,2.62
2022-12-18T09:05:22.548Z,2.53
2022-12-18T09:06:26.774Z,2.78
2022-12-18T09:07:29.645Z,2.80
2022-12-18T09:08:32.812Z,2.84
2022-12-18T09:09:38.594Z,2.85
2022-12-18T09:10:50.530Z,3.07
2022-12-18T09:11:53.185Z,3.07
2022-12-18T09:12:57.327Z,3.14
2022-12-18T09:14:01.713Z,3.45
2022-12-18T09:15:05.679Z,3.11
2022-12-18T09:16:08.470Z,3.30
2022-12-18T09:17:11.087Z,3.41
2022-12-18T09:18:15.978Z,3.00
2022-12-18T09:19:18.850Z,3.43
2022-12-18T09:20:21.520Z,3.62
2022-12-18T09:21:24.341Z,4.01
2022-12-18T09:22:31.910Z,3.95
2022-12-18T09:23:39.128Z,3.42
2022-12-18T09:24:45.373Z,3.30
2022-12-18T09:25:53.862Z,2.92
2022-12-18T09:26:57.997Z,2.97
2022-12-18T09:28:01.558Z,3.09
2022-12-18T09:29:07.760Z,3.28
2022-12-18T09:30:14.087Z,3.48
2022-12-18T09:31:18.791Z,3.54
2022-12-18T09:32:22.810Z,3.37
2022-12-18T09:33:25.988Z,3.62
2022-12-18T09:34:31.882Z,3.85
2022-12-18T09:35:38.043Z,3.50
2022-12-18T09:36:41.399Z,3.87
2022-12-18T09:37:44.658Z,3.65
2022-12-18T09:38:50.711Z,4.31
2022-12-18T09:39:55.157Z,3.90
2022-12-18T09:41:39.684Z,3.92
2022-12-18T09:42:46.903Z,3.46
2022-12-18T09:43:57.341Z,3.65
2022-12-18T09:45:13.065Z,4.24
2022-12-18T09:46:19.215Z,4.58
2022-12-18T09:47:40.053Z,4.66
2022-12-18T09:48:45.916Z,4.58
2022-12-18T09:49:53.968Z,3.97
2022-12-18T09:51:02.167Z,4.99
2022-12-18T09:52:35.380Z,3.65
2022-12-18T09:53:40.609Z,3.49
2022-12-18T09:54:45.505Z,3.46
2022-12-18T09:55:49.863Z,3.41
2022-12-18T09:56:52.913Z,3.08
2022-12-18T09:58:06.008Z,3.31
2022-12-18T09:59:28.634Z,3.07
2022-12-18T10:00:37.687Z,2.83
2022-12-18T10:01:44.587Z,2.65
2022-12-18T10:03:03.365Z,2.93
2022-12-18T10:04:10.109Z,2.89
2022-12-18T10:05:16.793Z,2.53
2022-12-18T10:06:40.212Z,2.52
2022-12-18T10:08:07.071Z,2.96
2022-12-18T10:09:38.572Z,3.18
2022-12-18T10:10:55.769Z,3.10
2022-12-18T10:12:15.602Z,3.23
2022-12-18T10:13:29.080Z,3.53
2022-12-18T10:14:59.670Z,3.27
2022-12-18T10:16:34.325Z,4.09
2022-12-18T10:18:22.166Z,3.68
2022-12-18T10:19:50.496Z,3.16
2022-12-18T10:20:55.979Z,3.15
2022-12-18T10:22:11.806Z,4.15
2022-12-18T10:23:22.998Z,4.23
2022-12-18T10:24:35.139Z,4.15
2022-12-18T10:25:47.204Z,3.90
2022-12-18T10:26:49.762Z,3.77
2022-12-18T10:27:56.597Z,3.37
2022-12-18T10:29:05.271Z,3.13
2022-12-18T10:30:17.557Z,2.88
2022-12-18T10:31:25.389Z,2.58
2022-12-18T10:32:30.630Z,2.14
2022-12-18T10:33:34.572Z,2.10
2022-12-18T10:34:36.990Z,2.16
2022-12-18T10:35:42.971Z,2.08
2022-12-18T10:36:48.860Z,2.07
2022-12-18T10:38:13.089Z,2.18
2022-12-18T10:39:24.464Z,1.86
2022-12-18T10:40:26.803Z,2.22
2022-12-18T10:41:29.649Z,1.91
2022-12-18T10:42:32.679Z,1.76
2022-12-18T10:43:37.733Z,1.66
2022-12-18T10:44:40.044Z,1.76
2022-12-18T10:45:43.608Z,1.78
2022-12-18T10:46:48.163Z,1.66
2022-12-18T10:47:51.283Z,1.54
2022-12-18T10:48:58.089Z,1.43
2022-12-18T10:50:02.589Z,1.52
2022-12-18T10:51:13.492Z,1.38
2022-12-18T10:52:20.714Z,1.29
2022-12-18T10:53:26.533Z,1.34
2022-12-18T10:54:36.232Z,1.40
2022-12-18T10:55:47.158Z,1.64
2022-12-18T10:56:49.751Z,1.48
2022-12-18T10:57:52.256Z,1.25
2022-12-18T10:59:07.250Z,1.20
2022-12-18T11:00:25.445Z,1.29
2022-12-18T11:01:28.638Z,1.43
2022-12-18T11:02:39.397Z,1.42
2022-12-18T11:03:47.296Z,1.48
2022-12-18T11:04:54.209Z,1.26
2022-12-18T11:06:18.249Z,1.24
2022-12-18T11:07:20.901Z,1.18
2022-12-18T11:08:24.473Z,1.15
2022-12-18T11:09:33.060Z,0.84
2022-12-18T11:10:38.845Z,0.94
2022-12-18T11:11:42.436Z,0.90
2022-12-18T11:12:45.171Z,0.94
2022-12-18T11:14:00.603Z,0.79
2022-12-18T11:15:02.920Z,0.69
2022-12-18T11:16:05.542Z,0.68
2022-12-18T11:17:26.494Z,0.88
2022-12-18T11:18:33.167Z,0.70
2022-12-18T11:19:37.047Z,0.71
2022-12-18T11:20:40.401Z,0.95
2022-12-18T11:21:43.735Z,0.82
2022-12-18T11:22:57.178Z,0.90
2022-12-18T11:23:59.629Z,1.11
2022-12-18T11:25:34.429Z,1.19
2022-12-18T11:26:38.298Z,1.25
2022-12-18T11:27:41.830Z,1.33
2022-12-18T11:29:13.300Z,1.57
2022-12-18T11:30:18.959Z,1.62
2022-12-18T11:31:27.150Z,1.92
2022-12-18T11:32:35.349Z,1.92
2022-12-18T11:33:53.156Z,2.17
2022-12-18T11:35:20.851Z,2.20
2022-12-18T11:36:24.148Z,2.17
2022-12-18T11:37:28.146Z,2.11
2022-12-18T11:38:37.374Z,1.83
2022-12-18T11:40:02.700Z,1.93
2022-12-18T11:41:23.892Z,1.79
2022-12-18T11:42:38.936Z,1.75
2022-12-18T11:43:52.440Z,1.68
2022-12-18T11:45:14.020Z,1.62
2022-12-18T11:46:25.483Z,1.79
2022-12-18T11:47:39.311Z,1.84
2022-12-18T11:48:51.521Z,1.63
2022-12-18T11:49:56.678Z,1.36
2022-12-18T11:51:02.959Z,1.41
2022-12-18T11:52:24.476Z,1.31
2022-12-18T11:53:28.521Z,1.46
2022-12-18T11:54:31.149Z,1.41
2022-12-18T11:56:03.683Z,1.49
2022-12-18T11:57:36.101Z,1.36
2022-12-18T11:58:38.589Z,1.37
2022-12-18T12:00:04.986Z,1.46
2022-12-18T12:01:56.903Z,1.30
2022-12-18T12:03:14.935Z,1.23
2022-12-18T12:04:33.628Z,1.47
2022-12-18T12:05:56.394Z,1.40
2022-12-18T12:07:10.755Z,1.43
2022-12-18T12:08:18.745Z,1.31
2022-12-18T12:09:33.861Z,1.03
2022-12-18T12:10:45.235Z,0.99
2022-12-18T12:12:25.398Z,1.07
2022-12-18T12:13:38.175Z,1.16
2022-12-18T12:14:52.928Z,1.14
2022-12-18T12:16:56.921Z,1.01
2022-12-18T12:18:29.234Z,1.15
2022-12-18T12:19:43.218Z,1.18
2022-12-18T12:21:02.063Z,1.14
2022-12-18T12:22:22.767Z,1.19
2022-12-18T12:23:40.196Z,1.09
2022-12-18T12:25:01.159Z,1.13
2022-12-18T12:26:09.098Z,1.11
2022-12-18T12:27:41.851Z,1.01
2022-12-18T12:29:10.706Z,1.00
2022-12-18T12:30:26.953Z,1.02
2022-12-18T12:31:40.889Z,0.98
2022-12-18T12:33:01.523Z,0.79
2022-12-18T12:34:20.428Z,0.66
2022-12-18T12:35:40.607Z,0.76
2022-12-18T12:37:24.480Z,0.85
2022-12-18T12:38:33.078Z,0.84
2022-12-18T12:39:42.022Z,0.88
2022-12-18T12:41:02.556Z,0.84
2022-12-18T12:42:31.118Z,0.83
2022-12-18T12:43:50.485Z,0.79
2022-12-18T12:44:57.843Z,0.74
2022-12-18T12:46:06.145Z,0.86
2022-12-18T12:47:17.677Z,0.86
2022-12-18T12:48:34.348Z,0.72
2022-12-18T12:49:40.759Z,0.64
2022-12-18T12:50:43.862Z,0.68
2022-12-18T12:52:08.435Z,0.70
2022-12-18T12:53:21.375Z,0.65
2022-12-18T12:54:27.386Z,0.71
2022-12-18T12:55:31.144Z,0.71
2022-12-18T12:56:43.744Z,0.69
2022-12-18T12:58:04.619Z,0.54
2022-12-18T12:59:24.787Z,0.53
2022-12-18T13:00:32.411Z,0.63
2022-12-18T13:01:56.815Z,0.58
2022-12-18T13:03:10.381Z,0.52
2022-12-18T13:04:26.928Z,0.54
2022-12-18T13:06:13.530Z,0.58
2022-12-18T13:07:30.852Z,0.62
2022-12-18T13:08:57.036Z,0.62
2022-12-18T13:10:31.788Z,0.57
2022-12-18T13:12:00.412Z,0.52
2022-12-18T13:13:10.791Z,0.54
2022-12-18T13:14:32.898Z,0.60
2022-12-18T13:15:42.521Z,0.58
2022-12-18T13:16:45.420Z,0.52
2022-12-18T13:17:49.384Z,0.51
2022-12-18T13:18:53.803Z,0.56
2022-12-18T13:20:15.934Z,0.33
2022-12-18T13:21:28.240Z,0.50
2022-12-18T13:22:44.358Z,0.44
2022-12-18T13:23:49.621Z,0.43
2022-12-18T13:24:52.632Z,0.52
2022-12-18T13:26:02.113Z,0.49
2022-12-18T13:27:43.081Z,0.40
2022-12-18T13:28:48.418Z,0.50
2022-12-18T13:29:53.031Z,0.32
2022-12-18T13:30:58.380Z,0.42
2022-12-18T13:32:02.808Z,0.45
2022-12-18T13:33:17.832Z,0.39
2022-12-18T13:34:28.186Z,0.44
2022-12-18T13:35:31.632Z,0.50
2022-12-18T13:36:37.525Z,0.46
2022-12-18T13:37:44.362Z,0.49
2022-12-18T13:38:46.865Z,0.47
2022-12-18T13:39:49.426Z,0.36
2022-12-18T13:40:51.769Z,0.34
2022-12-18T13:42:07.419Z,0.39
2022-12-18T13:43:21.965Z,0.57
2022-12-18T13:46:02.703Z,0.55
2022-12-18T13:47:25.672Z,0.48
2022-12-18T13:48:33.779Z,0.47
2022-12-18T13:49:45.421Z,0.50
2022-12-18T13:50:54.899Z,0.50
2022-12-18T13:52:00.572Z,0.38
2022-12-18T13:53:05.751Z,0.41
2022-12-18T13:54:36.710Z,0.30
2022-12-18T13:55:39.838Z,0.38
2022-12-18T13:56:46.039Z,0.38
2022-12-18T13:57:49.395Z,0.45
2022-12-18T13:59:09.957Z,0.43
2022-12-18T14:00:43.340Z,0.37
2022-12-18T14:02:02.523Z,0.36
2022-12-18T14:03:22.623Z,0.35
2022-12-18T14:04:29.138Z,0.48
2022-12-18T14:05:35.702Z,0.51
2022-12-18T14:06:38.963Z,0.54
2022-12-18T14:07:42.647Z,0.51
2022-12-18T14:08:48.352Z,0.32
2022-12-18T14:09:55.621Z,0.48
2022-12-18T14:11:06.702Z,0.37
2022-12-18T14:12:37.313Z,0.23
2022-12-18T14:13:45.298Z,0.17
2022-12-18T14:14:51.528Z,0.22
2022-12-18T14:15:59.266Z,0.13
2022-12-18T14:17:03.902Z,0.10
2022-12-18T14:18:26.602Z,0.12
2022-12-18T14:19:29.224Z,0.09
2022-12-18T14:20:34.130Z,0.01
2022-12-18T14:21:39.087Z,0.01
2022-12-18T14:22:50.923Z,0.04
2022-12-18T14:24:06.359Z,0.09
2022-12-18T14:25:14.671Z,0.07
2022-12-18T14:26:36.052Z,0.06
2022-12-18T14:27:42.732Z,0.03
2022-12-18T14:28:46.127Z,0.07
2022-12-18T14:29:48.422Z,0.05
2022-12-18T14:30:51.293Z,0.04
2022-12-18T14:32:18.080Z,-0.09
2022-12-18T14:33:27.054Z,-0.11
2022-12-18T14:34:29.455Z,-0.06
2022-12-18T14:35:33.247Z,-0.10
2022-12-18T14:36:35.798Z,-0.19
2022-12-18T14:37:38.238Z,-0.07
2022-12-18T14:38:41.302Z,-0.06
2022-12-18T14:40:03.186Z,-0.06
2022-12-18T14:41:15.845Z,-0.20
2022-12-18T14:42:18.501Z,-0.18
2022-12-18T14:43:21.189Z,-0.17
2022-12-18T14:44:28.632Z,-0.16
2022-12-18T14:45:44.956Z,-0.15
2022-12-18T14:46:49.154Z,-0.17
2022-12-18T14:47:53.793Z,-0.17
2022-12-18T14:48:58.689Z,-0.10
2022-12-18T14:50:01.241Z,-0.11
2022-12-18T14:51:09.157Z,-0.17
2022-12-18T14:52:27.229Z,-0.13
2022-12-18T14:53:38.292Z,-0.24
2022-12-18T14:54:41.065Z,-0.34
2022-12-18T14:55:49.216Z,-0.34
2022-12-18T14:56:58.886Z,-0.24